createdAt,value
2019-03-20T00:00:35.959Z,27.80
2019-03-20T00:03:05.781Z,24.33
2019-03-20T00:05:35.500Z,37.30
2019-03-20T00:08:05.063Z,27.70
2019-03-20T00:10:34.587Z,32.60
2019-03-20T00:13:04.198Z,33.83
2019-03-20T00:15:33.739Z,27.23
2019-03-20T00:18:03.397Z,21.30
2019-03-20T00:20:32.920Z,21.50
2019-03-20T00:23:02.461Z,21.43
2019-03-20T00:25:31.977Z,17.60
2019-03-20T00:28:01.539Z,24.47
2019-03-20T00:30:31.068Z,24.93
2019-03-20T00:33:00.599Z,20.27
2019-03-20T00:35:30.118Z,25.10
2019-03-20T00:37:59.680Z,29.80
2019-03-20T00:40:29.216Z,21.50
2019-03-20T00:42:58.758Z,29.53
2019-03-20T00:45:29.694Z,24.77
2019-03-20T00:47:59.303Z,26.73
2019-03-20T00:50:28.863Z,26.80
2019-03-20T00:52:58.413Z,18.53
2019-03-20T00:55:27.958Z,28.27
2019-03-20T00:57:57.493Z,26.23
2019-03-20T01:00:27.043Z,25.07
2019-03-20T01:02:56.582Z,26.23
2019-03-20T01:05:26.215Z,28.27
2019-03-20T01:07:55.779Z,33.10
2019-03-20T01:10:25.322Z,38.27
2019-03-20T01:12:54.877Z,49.27
2019-03-20T01:15:24.404Z,44.70
2019-03-20T01:17:53.960Z,53.13
2019-03-20T01:20:23.510Z,38.80
2019-03-20T01:22:53.072Z,51.17
2019-03-20T01:25:22.607Z,36.83
2019-03-20T01:27:52.204Z,42.90
2019-03-20T01:30:37.942Z,40.80
2019-03-20T01:33:09.054Z,41.27
2019-03-20T01:35:38.604Z,35.03
2019-03-20T01:38:08.237Z,46.07
2019-03-20T01:40:40.026Z,40.80
2019-03-20T01:43:09.159Z,33.33
2019-03-20T01:45:38.695Z,36.93
2019-03-20T01:48:08.230Z,37.37
2019-03-20T01:50:37.764Z,31.63
2019-03-20T01:53:07.306Z,35.30
2019-03-20T01:55:36.828Z,39.17
2019-03-20T01:58:06.385Z,44.53
2019-03-20T02:00:35.920Z,34.67
2019-03-20T02:03:05.477Z,37.33
2019-03-20T02:05:36.520Z,34.73
2019-03-20T02:08:06.246Z,31.37
2019-03-20T02:10:35.767Z,42.70
2019-03-20T02:13:05.315Z,29.83
2019-03-20T02:15:39.359Z,40.53
2019-03-20T02:18:06.122Z,41.73
2019-03-20T02:20:35.657Z,40.20
2019-03-20T02:23:05.283Z,30.73
2019-03-20T02:25:34.820Z,37.27
2019-03-20T02:28:04.434Z,48.57
2019-03-20T02:30:33.966Z,41.53
2019-03-20T02:33:03.518Z,42.97
2019-03-20T02:35:33.049Z,44.97
2019-03-20T02:38:02.608Z,32.87
2019-03-20T02:40:32.149Z,28.80
2019-03-20T02:43:01.699Z,35.23
2019-03-20T02:45:31.266Z,35.63
2019-03-20T02:48:00.813Z,41.40
2019-03-20T02:50:30.426Z,51.77
2019-03-20T02:52:59.971Z,35.73
2019-03-20T02:55:29.531Z,37.93
2019-03-20T02:57:59.260Z,43.03
2019-03-20T03:00:28.800Z,38.97
2019-03-20T03:02:58.352Z,40.53
2019-03-20T03:05:27.885Z,52.80
2019-03-20T03:07:57.442Z,44.13
2019-03-20T03:10:27.005Z,45.00
2019-03-20T03:12:56.559Z,43.57
2019-03-20T03:15:26.188Z,42.10
2019-03-20T03:17:55.705Z,43.97
2019-03-20T03:20:25.265Z,48.50
2019-03-20T03:22:54.804Z,35.40
2019-03-20T03:25:24.373Z,49.23
2019-03-20T03:27:53.983Z,51.03
2019-03-20T03:30:23.510Z,42.90
2019-03-20T03:32:53.091Z,47.50
2019-03-20T03:35:22.619Z,49.30
2019-03-20T03:37:52.178Z,55.67
2019-03-20T03:40:21.742Z,42.93
2019-03-20T03:42:51.282Z,45.63
2019-03-20T03:45:20.809Z,47.13
2019-03-20T03:47:50.362Z,39.30
2019-03-20T03:50:19.908Z,55.70
2019-03-20T03:52:49.441Z,39.17
2019-03-20T03:55:18.985Z,50.77
2019-03-20T03:57:48.560Z,51.37
2019-03-20T04:00:18.141Z,46.30
2019-03-20T04:02:47.687Z,37.37
2019-03-20T04:05:17.239Z,41.07
2019-03-20T04:07:46.793Z,41.47
2019-03-20T04:10:16.329Z,39.23
2019-03-20T04:12:45.915Z,44.20
2019-03-20T04:15:15.479Z,45.00
2019-03-20T04:17:45.052Z,31.53
2019-03-20T04:20:14.614Z,45.57
2019-03-20T04:22:44.151Z,66.30
2019-03-20T04:25:13.692Z,42.40
2019-03-20T04:27:43.280Z,47.83
2019-03-20T04:30:12.861Z,44.60
2019-03-20T04:32:42.394Z,51.90
2019-03-20T04:35:11.948Z,49.80
2019-03-20T04:37:41.563Z,46.27
2019-03-20T04:40:11.173Z,50.63
2019-03-20T04:42:40.713Z,49.30
2019-03-20T04:45:12.652Z,57.00
2019-03-20T04:47:42.337Z,55.33
2019-03-20T04:50:12.009Z,43.10
2019-03-20T04:52:41.534Z,54.63
2019-03-20T04:55:11.122Z,52.27
2019-03-20T04:57:40.784Z,42.53
2019-03-20T05:00:12.657Z,52.03
2019-03-20T05:02:42.210Z,48.80
2019-03-20T05:05:11.737Z,60.33
2019-03-20T05:07:41.295Z,68.03
2019-03-20T05:10:12.291Z,64.33
2019-03-20T05:12:41.877Z,59.20
2019-03-20T05:15:11.491Z,53.17
2019-03-20T05:17:41.042Z,48.33
2019-03-20T05:20:11.821Z,60.33
2019-03-20T05:22:41.388Z,51.50
2019-03-20T05:25:10.955Z,61.63
2019-03-20T05:27:40.543Z,60.73
2019-03-20T05:30:11.052Z,52.40
2019-03-20T05:32:40.662Z,55.70
2019-03-20T05:35:10.220Z,55.33
2019-03-20T05:37:39.789Z,60.83
2019-03-20T05:40:10.525Z,69.27
2019-03-20T05:42:40.070Z,49.00
2019-03-20T05:45:10.888Z,61.03
2019-03-20T05:47:40.451Z,53.93
2019-03-20T05:50:10.861Z,50.20
2019-03-20T05:52:40.421Z,62.73
2019-03-20T05:55:09.979Z,64.17
2019-03-20T05:57:39.574Z,63.23
2019-03-20T06:00:10.438Z,44.33
2019-03-20T06:02:39.983Z,45.37
2019-03-20T06:05:09.544Z,61.30
2019-03-20T06:07:39.092Z,57.10
2019-03-20T06:10:10.444Z,50.00
2019-03-20T06:12:40.108Z,71.50
2019-03-20T06:15:09.673Z,69.07
2019-03-20T06:17:39.231Z,59.67
2019-03-20T06:20:08.989Z,57.67
2019-03-20T06:22:38.537Z,57.23
2019-03-20T06:25:08.438Z,50.13
2019-03-20T06:27:37.968Z,55.00
2019-03-20T06:30:09.164Z,58.60
2019-03-20T06:32:38.700Z,56.90
2019-03-20T06:35:08.879Z,61.77
2019-03-20T06:37:38.454Z,52.90
2019-03-20T06:40:08.601Z,51.47
2019-03-20T06:42:38.124Z,59.93
2019-03-20T06:45:08.546Z,64.67
2019-03-20T06:47:38.108Z,60.13
2019-03-20T06:50:10.782Z,58.73
2019-03-20T06:52:40.316Z,67.83
2019-03-20T06:55:09.958Z,65.20
2019-03-20T06:57:39.523Z,50.30
2019-03-20T07:00:52.996Z,56.17
2019-03-20T07:03:41.812Z,51.73
2019-03-20T07:06:35.655Z,56.97
2019-03-20T07:09:15.998Z,41.03
2019-03-20T07:11:45.589Z,46.83
2019-03-20T07:14:15.122Z,38.60
2019-03-20T07:16:44.666Z,49.40
2019-03-20T07:19:14.211Z,47.03
2019-03-20T07:21:43.807Z,40.80
2019-03-20T07:24:13.386Z,48.40
2019-03-20T07:26:42.922Z,54.47
2019-03-20T07:29:12.481Z,40.30
2019-03-20T07:31:42.015Z,45.23
2019-03-20T07:34:11.569Z,46.37
2019-03-20T07:36:41.116Z,35.30
2019-03-20T07:39:11.074Z,36.60
2019-03-20T07:41:40.723Z,34.00
2019-03-20T07:44:10.268Z,39.53
2019-03-20T07:46:39.802Z,47.93
2019-03-20T07:49:09.372Z,61.17
2019-03-20T07:51:38.910Z,51.33
2019-03-20T07:54:08.288Z,50.73
2019-03-20T07:56:37.820Z,47.03
2019-03-20T07:59:07.372Z,36.13
2019-03-20T08:01:36.911Z,35.23
2019-03-20T08:04:06.474Z,30.73
2019-03-20T08:06:36.141Z,37.50
2019-03-20T08:09:07.638Z,46.00
2019-03-20T08:11:37.167Z,37.03
2019-03-20T08:14:06.706Z,53.33
2019-03-20T08:16:36.263Z,48.60
2019-03-20T08:19:05.799Z,34.23
2019-03-20T08:21:35.338Z,37.63
2019-03-20T08:24:04.884Z,49.70
2019-03-20T08:26:34.520Z,48.53
2019-03-20T08:29:04.065Z,33.83
2019-03-20T08:31:33.613Z,44.23
2019-03-20T08:34:03.160Z,32.43
2019-03-20T08:36:32.799Z,40.33
2019-03-20T08:39:02.316Z,37.27
2019-03-20T08:41:31.859Z,34.53
2019-03-20T08:44:01.399Z,34.73
2019-03-20T08:46:30.960Z,43.83
2019-03-20T08:49:00.489Z,40.43
2019-03-20T08:51:30.044Z,34.23
2019-03-20T08:53:59.594Z,44.07
2019-03-20T08:56:29.171Z,40.77
2019-03-20T08:58:58.750Z,40.47
2019-03-20T09:01:29.118Z,43.50
2019-03-20T09:03:58.844Z,76.60
2019-03-20T09:06:28.400Z,49.40
2019-03-20T09:08:57.946Z,43.03
2019-03-20T09:11:27.510Z,44.13
2019-03-20T09:13:57.054Z,49.93
2019-03-20T09:16:27.381Z,55.50
2019-03-20T09:18:57.117Z,32.83
2019-03-20T09:21:26.750Z,46.07
2019-03-20T09:23:56.275Z,49.90
2019-03-20T09:26:25.846Z,40.07
2019-03-20T09:28:55.392Z,42.50
2019-03-20T09:31:24.942Z,40.77
2019-03-20T09:33:54.607Z,57.77
2019-03-20T09:36:24.232Z,73.67
2019-03-20T09:38:53.782Z,40.90
2019-03-20T09:41:23.380Z,32.47
2019-03-20T09:43:52.926Z,55.90
2019-03-20T09:46:22.536Z,63.27
2019-03-20T09:48:52.103Z,45.57
2019-03-20T09:51:21.649Z,38.93
2019-03-20T09:53:51.181Z,47.83
2019-03-20T09:56:20.720Z,41.37
2019-03-20T09:58:50.278Z,39.13
2019-03-20T10:01:19.827Z,26.73
2019-03-20T10:03:49.382Z,31.17
2019-03-20T10:06:18.935Z,29.97
2019-03-20T10:08:53.941Z,39.10
2019-03-20T10:11:19.764Z,35.60
2019-03-20T10:13:49.311Z,32.83
2019-03-20T10:16:18.858Z,25.47
2019-03-20T10:18:48.449Z,35.90
2019-03-20T10:21:17.988Z,27.77
2019-03-20T10:23:47.539Z,22.03
2019-03-20T10:26:17.070Z,29.90
2019-03-20T10:28:46.624Z,30.63
2019-03-20T10:31:16.163Z,28.70
2019-03-20T10:33:45.747Z,21.70
2019-03-20T10:36:15.271Z,27.40
2019-03-20T10:38:44.852Z,24.77
2019-03-20T10:41:14.409Z,24.60
2019-03-20T10:43:43.959Z,28.87
2019-03-20T10:46:13.498Z,23.00
2019-03-20T10:48:43.046Z,28.10
2019-03-20T10:51:12.591Z,26.10
2019-03-20T10:53:42.153Z,27.10
2019-03-20T10:56:11.878Z,21.20
2019-03-20T10:58:41.430Z,41.60
2019-03-20T11:01:11.031Z,23.00
2019-03-20T11:03:40.592Z,40.47
2019-03-20T11:06:10.165Z,26.67
2019-03-20T11:08:39.717Z,23.13
2019-03-20T11:11:09.272Z,18.33
2019-03-20T11:13:38.837Z,21.07
2019-03-20T11:16:08.419Z,23.27
2019-03-20T11:18:38.309Z,14.77
2019-03-20T11:21:08.013Z,22.50
2019-03-20T11:23:37.604Z,25.53
2019-03-20T11:26:07.486Z,17.17
2019-03-20T11:28:37.183Z,15.90
2019-03-20T11:31:06.725Z,22.60
2019-03-20T11:33:36.517Z,16.73
2019-03-20T11:36:06.079Z,16.60
2019-03-20T11:38:35.626Z,18.87
2019-03-20T11:41:05.325Z,21.00
2019-03-20T11:43:34.878Z,15.60
2019-03-20T11:46:04.422Z,23.17
2019-03-20T11:48:33.973Z,18.83
2019-03-20T11:51:03.535Z,20.33
2019-03-20T11:53:33.083Z,23.83
2019-03-20T11:56:02.615Z,21.90
2019-03-20T11:58:32.173Z,13.43
2019-03-20T12:01:01.863Z,22.23
2019-03-20T12:03:31.605Z,35.07
2019-03-20T12:06:01.136Z,13.33
2019-03-20T12:08:30.695Z,11.83
2019-03-20T12:11:00.282Z,22.30
2019-03-20T12:13:29.854Z,20.00
2019-03-20T12:15:59.596Z,15.30
2019-03-20T12:18:29.203Z,31.30
2019-03-20T12:20:58.809Z,38.13
2019-03-20T12:23:28.382Z,20.33
2019-03-20T12:25:57.917Z,16.90
2019-03-20T12:28:27.499Z,17.33
2019-03-20T12:30:57.025Z,19.77
2019-03-20T12:33:26.551Z,15.67
2019-03-20T12:35:56.101Z,19.43
2019-03-20T12:38:25.699Z,28.60
2019-03-20T12:40:55.240Z,23.23
2019-03-20T12:43:24.793Z,16.70
2019-03-20T12:45:54.348Z,22.37
2019-03-20T12:48:23.950Z,22.07
2019-03-20T12:50:53.503Z,23.00
2019-03-20T12:53:24.060Z,25.60
2019-03-20T12:55:53.609Z,19.53
2019-03-20T12:58:23.156Z,20.33
2019-03-20T13:00:54.546Z,17.70
2019-03-20T13:03:23.974Z,14.63
2019-03-20T13:05:53.536Z,15.63
2019-03-20T13:08:23.159Z,26.97
2019-03-20T13:10:52.654Z,25.67
2019-03-20T13:13:22.185Z,24.40
2019-03-20T13:15:51.773Z,23.80
2019-03-20T13:18:21.318Z,14.80
2019-03-20T13:20:50.938Z,22.13
2019-03-20T13:23:22.752Z,22.10
2019-03-20T13:25:52.294Z,15.33
2019-03-20T13:28:21.849Z,20.93
2019-03-20T13:30:54.623Z,21.77
2019-03-20T13:33:26.053Z,17.20
2019-03-20T13:35:55.442Z,18.20
2019-03-20T13:38:25.014Z,20.20
2019-03-20T13:40:54.546Z,24.20
2019-03-20T13:43:24.078Z,18.53
2019-03-20T13:45:53.606Z,20.10
2019-03-20T13:48:23.179Z,23.67
2019-03-20T13:50:52.735Z,24.20
2019-03-20T13:53:22.278Z,22.07
2019-03-20T13:55:51.816Z,22.03
2019-03-20T13:58:21.353Z,17.77
2019-03-20T14:00:50.941Z,21.50
2019-03-20T14:03:20.531Z,13.27
2019-03-20T14:05:50.072Z,17.00
2019-03-20T14:08:19.615Z,13.97
2019-03-20T14:10:50.818Z,24.83
2019-03-20T14:13:20.575Z,20.70
2019-03-20T14:15:50.125Z,26.87
2019-03-20T14:18:19.693Z,18.10
2019-03-20T14:20:49.242Z,16.87
2019-03-20T14:23:18.787Z,13.30
2019-03-20T14:25:48.312Z,26.67
2019-03-20T14:28:17.851Z,19.37
2019-03-20T14:30:47.394Z,24.10
2019-03-20T14:33:16.947Z,22.13
2019-03-20T14:35:46.489Z,21.30
2019-03-20T14:38:16.022Z,32.30
2019-03-20T14:40:45.557Z,26.07
2019-03-20T14:43:15.175Z,24.93
2019-03-20T14:45:44.842Z,28.67
2019-03-20T14:48:14.390Z,15.53
2019-03-20T14:50:43.926Z,16.03
2019-03-20T14:53:13.474Z,20.20
2019-03-20T14:55:43.052Z,23.27
2019-03-20T14:58:12.587Z,14.60
2019-03-20T15:00:42.136Z,27.90
2019-03-20T15:03:11.679Z,13.60
2019-03-20T15:05:41.354Z,17.13
2019-03-20T15:08:10.872Z,22.67
2019-03-20T15:10:45.838Z,14.93
2019-03-20T15:13:11.710Z,17.30
2019-03-20T15:15:47.558Z,19.47
2019-03-20T15:18:17.087Z,10.40
2019-03-20T15:20:46.654Z,12.70
2019-03-20T15:23:16.235Z,20.40
2019-03-20T15:25:45.785Z,23.50
2019-03-20T15:28:15.347Z,24.10
2019-03-20T15:30:44.888Z,14.97
2019-03-20T15:33:14.447Z,20.37
2019-03-20T15:35:44.024Z,17.80
2019-03-20T15:38:13.556Z,24.57
2019-03-20T15:40:43.087Z,22.33
2019-03-20T15:43:12.639Z,27.37
2019-03-20T15:45:42.304Z,18.77
2019-03-20T15:48:11.870Z,31.53
2019-03-20T15:50:41.426Z,23.50
2019-03-20T15:53:11.088Z,22.00
2019-03-20T15:55:40.621Z,31.77
2019-03-20T15:58:10.225Z,31.43
2019-03-20T16:00:39.890Z,21.13
2019-03-20T16:03:12.269Z,23.37
2019-03-20T16:05:41.814Z,18.60
2019-03-20T16:08:11.388Z,15.60
2019-03-20T16:10:40.964Z,17.90
2019-03-20T16:13:10.502Z,18.80
2019-03-20T16:15:40.046Z,27.67
2019-03-20T16:18:09.641Z,36.63
2019-03-20T16:20:39.187Z,32.03
2019-03-20T16:23:08.769Z,40.73
2019-03-20T16:25:38.300Z,41.93
2019-03-20T16:28:07.895Z,50.73
2019-03-20T16:30:37.432Z,61.87
2019-03-20T16:33:06.993Z,55.97
2019-03-20T16:35:36.538Z,64.33
2019-03-20T16:38:07.049Z,54.63
2019-03-20T16:40:36.953Z,52.93
2019-03-20T16:43:06.497Z,49.57
2019-03-20T16:45:36.088Z,51.80
2019-03-20T16:48:05.714Z,65.57
2019-03-20T16:50:35.279Z,54.00
2019-03-20T16:53:04.817Z,57.93
2019-03-20T16:55:34.371Z,63.03
2019-03-20T16:58:03.947Z,63.50
2019-03-20T17:00:33.502Z,77.87
2019-03-20T17:03:03.036Z,61.40
2019-03-20T17:05:32.669Z,55.23
2019-03-20T17:08:02.218Z,36.00
2019-03-20T17:10:34.129Z,35.63
2019-03-20T17:13:03.748Z,40.13
2019-03-20T17:15:33.387Z,48.50
2019-03-20T17:18:02.895Z,45.27
2019-03-20T17:20:32.451Z,48.83
2019-03-20T17:23:02.014Z,46.43
2019-03-20T17:25:31.619Z,52.47
2019-03-20T17:28:01.169Z,53.33
2019-03-20T17:30:32.732Z,72.97
2019-03-20T17:33:02.386Z,89.77
2019-03-20T17:35:31.942Z,97.03
2019-03-20T17:38:01.574Z,85.90
2019-03-20T17:40:31.112Z,82.77
2019-03-20T17:43:00.662Z,79.60
2019-03-20T17:45:30.240Z,63.83
2019-03-20T17:47:59.789Z,60.13
2019-03-20T17:50:29.601Z,52.47
2019-03-20T17:52:59.193Z,59.83
2019-03-20T17:55:28.832Z,60.40
2019-03-20T17:57:58.391Z,56.93
2019-03-20T18:00:35.909Z,61.07
2019-03-20T18:03:05.570Z,58.63
2019-03-20T18:05:35.109Z,71.60
2019-03-20T18:08:04.820Z,62.80
2019-03-20T18:10:34.347Z,74.83
2019-03-20T18:13:03.910Z,57.67
2019-03-20T18:15:33.439Z,57.13
2019-03-20T18:18:03.038Z,47.40
2019-03-20T18:20:32.605Z,43.80
2019-03-20T18:23:02.162Z,48.47
2019-03-20T18:25:31.690Z,47.50
2019-03-20T18:28:01.310Z,47.23
2019-03-20T18:30:31.030Z,55.77
2019-03-20T18:33:00.599Z,50.37
2019-03-20T18:35:30.149Z,48.03
2019-03-20T18:37:59.663Z,45.10
2019-03-20T18:40:29.214Z,39.63
2019-03-20T18:42:58.832Z,51.27
2019-03-20T18:45:28.408Z,44.60
2019-03-20T18:47:57.935Z,46.00
2019-03-20T18:50:27.494Z,63.50
2019-03-20T18:52:57.039Z,38.03
2019-03-20T18:55:26.693Z,43.70
2019-03-20T18:57:56.300Z,43.13
2019-03-20T19:00:26.213Z,39.93
2019-03-20T19:02:56.620Z,37.53
2019-03-20T19:05:35.653Z,47.37
2019-03-20T19:08:05.317Z,35.43
2019-03-20T19:10:34.938Z,33.37
2019-03-20T19:13:04.560Z,50.97
2019-03-20T19:15:34.126Z,42.43
2019-03-20T19:18:03.731Z,42.27
2019-03-20T19:20:33.318Z,47.53
2019-03-20T19:23:02.855Z,54.30
2019-03-20T19:25:36.358Z,71.50
2019-03-20T19:28:06.025Z,68.23
2019-03-20T19:30:35.598Z,57.77
2019-03-20T19:33:05.277Z,63.13
2019-03-20T19:35:34.817Z,61.37
2019-03-20T19:38:04.352Z,50.40
2019-03-20T19:41:37.004Z,49.27
2019-03-20T19:44:50.006Z,56.83
2019-03-20T19:48:29.541Z,56.37
2019-03-20T19:51:14.943Z,53.90
2019-03-20T19:54:02.236Z,64.37
2019-03-20T19:56:37.838Z,58.70
2019-03-20T19:59:07.378Z,55.33
2019-03-20T20:02:30.834Z,51.10
2019-03-20T20:05:00.422Z,42.67
2019-03-20T20:07:29.973Z,45.60
2019-03-20T20:09:59.514Z,56.53
2019-03-20T20:12:31.497Z,55.93
2019-03-20T20:15:00.418Z,50.40
2019-03-20T20:17:29.947Z,43.63
2019-03-20T20:19:59.531Z,44.07
2019-03-20T20:22:29.075Z,51.40
2019-03-20T20:24:58.628Z,60.70
2019-03-20T20:27:28.241Z,41.70
2019-03-20T20:29:57.823Z,44.43
2019-03-20T20:32:27.365Z,43.57
2019-03-20T20:34:56.905Z,46.30
2019-03-20T20:37:26.542Z,54.80
2019-03-20T20:39:56.198Z,50.60
2019-03-20T20:42:25.768Z,47.07
2019-03-20T20:44:55.308Z,55.10
2019-03-20T20:47:24.847Z,48.60
2019-03-20T20:49:54.521Z,61.10
2019-03-20T20:52:24.079Z,45.60
2019-03-20T20:54:53.688Z,50.73
2019-03-20T20:57:23.224Z,45.40
2019-03-20T20:59:52.800Z,52.03
2019-03-20T21:02:22.331Z,45.90
2019-03-20T21:04:51.908Z,37.43
2019-03-20T21:07:21.474Z,32.47
2019-03-20T21:09:51.035Z,35.60
2019-03-20T21:12:20.573Z,30.80
2019-03-20T21:14:51.112Z,37.93
2019-03-20T21:17:27.396Z,32.47
2019-03-20T21:19:57.474Z,37.10
2019-03-20T21:23:03.683Z,33.33
2019-03-20T21:25:33.806Z,47.17
2019-03-20T21:28:50.469Z,43.23
2019-03-20T21:31:40.710Z,34.73
2019-03-20T21:34:56.950Z,36.20
2019-03-20T21:38:10.733Z,52.37
2019-03-20T21:41:21.453Z,37.80
2019-03-20T21:44:42.429Z,42.80
2019-03-20T21:47:33.616Z,33.90
2019-03-20T21:51:02.110Z,30.27
2019-03-20T21:54:11.279Z,39.13
2019-03-20T21:56:45.070Z,40.27
2019-03-20T21:59:45.244Z,36.37
2019-03-20T22:02:42.436Z,37.90
2019-03-20T22:05:55.222Z,43.10
2019-03-20T22:08:25.296Z,31.80
2019-03-20T22:11:41.999Z,36.17
2019-03-20T22:14:12.073Z,38.50
2019-03-20T22:17:17.442Z,36.90
2019-03-20T22:20:37.015Z,40.10
2019-03-20T22:23:40.328Z,41.80
2019-03-20T22:26:46.769Z,31.53
2019-03-20T22:29:27.381Z,39.87
2019-03-20T22:32:44.394Z,39.30
2019-03-20T22:35:47.475Z,36.90
2019-03-20T22:39:09.282Z,39.03
2019-03-20T22:42:25.943Z,39.27
2019-03-20T22:45:20.523Z,33.00
2019-03-20T22:48:18.881Z,39.47
2019-03-20T22:51:16.982Z,36.30
2019-03-20T22:54:18.199Z,41.50
2019-03-20T22:57:11.792Z,46.70
2019-03-20T22:59:41.866Z,55.37
2019-03-20T23:02:38.149Z,50.77
2019-03-20T23:05:09.188Z,43.10
2019-03-20T23:07:39.300Z,42.03
2019-03-20T23:10:11.991Z,34.33
2019-03-20T23:12:42.072Z,37.80
2019-03-20T23:15:14.596Z,42.17
2019-03-20T23:17:44.694Z,35.87
2019-03-20T23:20:17.281Z,36.40
2019-03-20T23:22:47.369Z,31.17
2019-03-20T23:25:17.453Z,33.60
2019-03-20T23:27:47.568Z,30.93
2019-03-20T23:30:20.633Z,32.20
2019-03-20T23:32:50.705Z,31.97
2019-03-20T23:35:20.796Z,30.00
2019-03-20T23:37:50.910Z,36.03
2019-03-20T23:40:20.986Z,34.93
2019-03-20T23:42:51.121Z,32.03
2019-03-20T23:45:21.219Z,30.63
2019-03-20T23:48:17.716Z,44.23
2019-03-20T23:50:48.226Z,32.87
2019-03-20T23:53:18.292Z,31.00
2019-03-20T23:55:48.364Z,33.50
2019-03-20T23:58:18.426Z,31.30
